sim
Sign-in with your pilot id or email,
or register
Callsign
Passwort

Schedule Details

Flight Number: OEF9452
Departure: Frankfurt Airport (EDDF) at 06:45
Arrival: Hamburg Airport (EDDH) at 07:45

Weather Information
Getting current METAR information for EDDF 241520Z 25010KT 9999 FEW023 BKN040 03/M01 Q1001 R25C/29//95 R25L/29//95 R18/29//95 NOSIG
Getting current METAR information for EDDH 241520Z 21006KT 9000 -SNRA FEW009 BKN012 BKN023 02/01 Q0997 BECMG BKN025

Schedule Frequency

Route Map